Time;durP1;ratioP1;P1;durP2;ratioP2;P2;SDS_P1;SDS_P2;PMS_P1;PMS_P2;Temp;Humidity;BMP_temperature;BMP_pressure;BME280_temperature;BME280_humidity;BME280_pressure;Samples;Min_cycle;Max_cycle;Signal;HPM_P1;HPM_P2
2022/08/13 00:01:39;;;;;;;5.28;1.60;;;;;;;19.75;66.89;96741.66;4985302;28;20050;-74
2022/08/13 00:04:06;;;;;;;3.15;1.50;;;;;;;19.68;66.51;96738.53;4985123;28;20080;-73
2022/08/13 00:09:14;;;;;;;5.35;1.50;;;;;;;19.35;71.14;96738.53;4986053;28;20069;-75
2022/08/13 00:14:31;;;;;;;4.28;1.42;;;;;;;19.34;70.70;96738.84;4985995;28;20168;-74
2022/08/13 00:16:56;;;;;;;5.60;1.50;;;;;;;19.32;71.00;96741.06;4990572;28;20330;-75
2022/08/13 00:19:28;;;;;;;6.55;1.40;;;;;;;19.38;68.85;96742.59;4984924;28;20499;-75
2022/08/13 00:21:54;;;;;;;5.00;1.65;;;;;;;19.33;71.06;96742.66;4985613;28;20120;-74
2022/08/13 00:24:20;;;;;;;7.93;1.40;;;;;;;19.17;73.13;96742.13;4986823;28;20713;-73
2022/08/13 00:26:45;;;;;;;3.92;1.70;;;;;;;19.18;70.95;96749.94;4986683;28;20038;-73
2022/08/13 00:29:11;;;;;;;4.63;1.65;;;;;;;19.09;73.96;96740.06;4976524;28;20759;-73
2022/08/13 00:31:37;;;;;;;11.15;2.25;;;;;;;19.06;74.58;96744.16;4987941;28;20141;-73
2022/08/13 00:34:03;;;;;;;2.97;1.38;;;;;;;18.90;76.60;96743.59;4989181;28;20545;-73
2022/08/13 00:36:34;;;;;;;6.47;1.55;;;;;;;18.82;74.35;96743.47;4990592;28;20050;-73
2022/08/13 00:39:00;;;;;;;4.63;1.60;;;;;;;18.60;77.91;96735.91;4986780;28;20476;-73
2022/08/13 00:41:38;;;;;;;7.50;1.95;;;;;;;18.55;78.68;96736.78;4990773;28;20228;-73
2022/08/13 00:44:06;;;;;;;2.83;1.63;;;;;;;18.58;77.98;96728.06;4989414;28;20049;-73
2022/08/13 00:46:33;;;;;;;8.07;2.08;;;;;;;18.66;75.79;96726.63;4992466;28;20388;-73
2022/08/13 00:49:03;;;;;;;5.93;1.60;;;;;;;18.75;75.82;96732.19;4989455;28;20228;-73
2022/08/13 00:51:32;;;;;;;3.88;1.70;;;;;;;18.78;75.10;96734.31;4989873;28;20187;-73
2022/08/13 00:53:59;;;;;;;3.97;1.88;;;;;;;18.83;77.56;96731.50;4990686;28;20472;-73
2022/08/13 00:56:26;;;;;;;7.20;1.75;;;;;;;18.82;74.73;96736.13;4989081;28;20440;-73
2022/08/13 00:58:52;;;;;;;3.55;1.50;;;;;;;18.85;75.31;96730.13;4988163;28;20207;-73
2022/08/13 01:01:23;;;;;;;7.30;1.70;;;;;;;18.83;78.17;96736.94;4988379;28;20117;-73
2022/08/13 01:03:49;;;;;;;5.22;1.77;;;;;;;18.85;78.41;96723.91;4987757;28;20049;-73
2022/08/13 01:06:15;;;;;;;6.28;1.75;;;;;;;18.84;77.46;96728.53;4990328;28;20052;-73
2022/08/13 01:08:40;;;;;;;11.55;1.83;;;;;;;18.83;76.49;96723.38;4990153;28;20073;-73
2022/08/13 01:11:15;;;;;;;6.65;1.70;;;;;;;18.84;77.56;96727.72;4987750;28;20201;-73
2022/08/13 01:13:43;;;;;;;7.85;1.70;;;;;;;18.81;77.26;96720.97;4988048;28;20038;-73
2022/08/13 01:16:14;;;;;;;8.38;1.60;;;;;;;18.82;78.02;96725.28;4990185;28;20491;-73
2022/08/13 01:18:46;;;;;;;6.45;1.77;;;;;;;18.79;77.25;96719.66;4988371;28;20048;-73
2022/08/13 01:21:18;;;;;;;7.55;1.77;;;;;;;18.78;76.55;96726.19;4988460;28;20038;-74
2022/08/13 01:23:49;;;;;;;3.67;1.60;;;;;;;18.73;76.51;96731.69;4989668;28;20034;-74
2022/08/13 01:26:19;;;;;;;6.20;1.70;;;;;;;18.62;79.84;96726.38;4987173;28;20540;-74
2022/08/13 01:28:46;;;;;;;6.93;1.80;;;;;;;18.62;78.49;96731.00;4988010;28;20583;-74
2022/08/13 01:31:15;;;;;;;9.73;1.65;;;;;;;18.58;78.25;96719.91;4989754;28;20038;-74
2022/08/13 01:33:43;;;;;;;4.75;1.73;;;;;;;18.62;78.16;96722.88;5009006;28;20443;-74
2022/08/13 01:36:11;;;;;;;5.75;1.80;;;;;;;18.63;78.91;96719.84;4987482;28;20033;-74
2022/08/13 01:38:39;;;;;;;4.97;1.65;;;;;;;18.63;79.02;96728.00;4988510;28;20397;-73
2022/08/13 01:41:08;;;;;;;5.32;1.90;;;;;;;18.63;77.37;96714.44;4987463;28;20503;-74
2022/08/13 01:43:38;;;;;;;5.63;2.03;;;;;;;18.62;79.90;96720.97;4989378;28;20366;-74
2022/08/13 01:46:05;;;;;;;4.55;1.80;;;;;;;18.63;78.89;96710.94;4988460;28;20529;-74
2022/08/13 01:51:23;;;;;;;3.63;1.80;;;;;;;18.55;78.06;96720.53;4988258;28;20038;-74
2022/08/13 01:53:55;;;;;;;5.22;2.00;;;;;;;18.52;79.94;96723.81;4988982;28;20069;-74
2022/08/13 01:56:22;;;;;;;4.50;1.77;;;;;;;18.52;78.62;96723.81;4988600;28;20116;-74
2022/08/13 01:58:53;;;;;;;4.55;1.60;;;;;;;18.47;81.74;96721.19;4986279;28;20038;-74
2022/08/13 02:01:26;;;;;;;5.53;2.03;;;;;;;18.47;79.85;96718.47;4988123;28;20057;-74
2022/08/13 02:03:53;;;;;;;6.38;1.67;;;;;;;18.43;80.88;96720.13;4988049;28;20132;-74
2022/08/13 02:06:28;;;;;;;5.18;1.63;;;;;;;18.40;82.41;96723.44;4987637;28;20450;-73
2022/08/13 02:09:03;;;;;;;4.82;2.05;;;;;;;18.33;83.09;96720.28;4988047;28;20087;-74
2022/08/13 02:11:33;;;;;;;3.40;1.70;;;;;;;18.31;80.66;96727.91;4987702;28;20556;-74
2022/08/13 02:14:03;;;;;;;6.72;2.10;;;;;;;18.30;82.76;96718.16;4990957;28;20069;-74
2022/08/13 02:16:34;;;;;;;5.03;1.70;;;;;;;18.30;82.52;96724.41;4988579;28;20504;-74
2022/08/13 02:19:07;;;;;;;5.18;1.92;;;;;;;18.27;83.35;96724.16;4985474;28;20428;-73
2022/08/13 02:21:37;;;;;;;5.43;2.03;;;;;;;18.27;82.71;96724.16;4987648;28;20042;-73
2022/08/13 02:24:08;;;;;;;6.97;2.20;;;;;;;18.22;83.18;96722.34;4987975;28;20038;-74
2022/08/13 02:26:35;;;;;;;12.25;2.00;;;;;;;18.17;83.53;96722.38;4987090;28;20126;-74
2022/08/13 02:29:04;;;;;;;6.40;2.00;;;;;;;18.10;83.78;96730.06;4987829;28;20041;-74
2022/08/13 02:31:29;;;;;;;3.90;1.60;;;;;;;18.06;83.18;96727.13;4985519;28;20160;-74
2022/08/13 02:33:56;;;;;;;8.88;1.80;;;;;;;18.07;84.91;96727.94;4988768;28;20501;-74
2022/08/13 02:36:23;;;;;;;6.25;1.70;;;;;;;18.00;84.60;96728.28;4989146;28;20038;-74
2022/08/13 02:38:56;;;;;;;7.35;1.75;;;;;;;17.94;86.21;96726.72;4986406;28;20148;-74
2022/08/13 02:44:10;;;;;;;5.30;2.10;;;;;;;17.86;86.18;96721.16;4986540;28;20045;-74
2022/08/13 02:46:40;;;;;;;5.90;1.95;;;;;;;17.86;85.08;96713.84;4987644;28;20049;-74
2022/08/13 02:49:05;;;;;;;3.92;2.13;;;;;;;17.84;84.35;96724.16;4972741;28;20562;-74
2022/08/13 02:51:31;;;;;;;6.50;2.20;;;;;;;17.72;86.47;96716.41;4988472;28;20581;-74
2022/08/13 02:54:00;;;;;;;3.90;1.95;;;;;;;17.71;85.87;96724.81;4987467;28;20033;-74
2022/08/13 02:56:27;;;;;;;3.95;1.80;;;;;;;17.69;85.74;96721.59;4986919;28;20054;-74
2022/08/13 02:58:53;;;;;;;4.22;1.75;;;;;;;17.59;87.83;96719.78;4983869;28;20038;-74
2022/08/13 03:01:19;;;;;;;6.18;2.20;;;;;;;17.53;88.38;96716.31;4986051;28;20406;-74
2022/08/13 03:03:45;;;;;;;3.85;2.30;;;;;;;17.50;87.94;96719.59;4986683;28;20041;-74
2022/08/13 03:06:11;;;;;;;5.95;1.70;;;;;;;17.53;87.88;96715.53;5005787;28;20041;-74
2022/08/13 03:08:37;;;;;;;6.75;2.22;;;;;;;17.46;87.22;96717.75;4985121;28;20041;-74
2022/08/13 03:11:03;;;;;;;5.30;1.95;;;;;;;17.46;87.99;96710.44;4987395;28;20284;-73
2022/08/13 03:13:33;;;;;;;7.10;1.83;;;;;;;17.45;89.24;96702.63;4988020;28;20401;-73
2022/08/13 03:16:00;;;;;;;5.38;2.00;;;;;;;17.46;87.77;96709.66;5000306;28;20096;-73
2022/08/13 03:18:26;;;;;;;5.53;2.00;;;;;;;17.42;87.99;96709.41;4986256;28;20045;-73
2022/08/13 03:20:52;;;;;;;4.75;1.88;;;;;;;17.44;87.34;96711.84;4987370;28;20448;-73
2022/08/13 03:23:18;;;;;;;3.30;1.58;;;;;;;17.32;90.15;96717.63;4985598;28;20068;-74
2022/08/13 03:25:44;;;;;;;5.10;1.88;;;;;;;17.31;88.33;96718.72;4987063;28;20117;-73
2022/08/13 03:28:10;;;;;;;7.22;2.17;;;;;;;17.30;88.53;96719.00;4988279;28;20393;-74
2022/08/13 03:30:36;;;;;;;8.68;2.17;;;;;;;17.26;88.46;96713.34;4986819;28;20355;-73
2022/08/13 03:33:11;;;;;;;8.70;2.17;;;;;;;17.23;90.08;96712.03;4985204;28;20152;-73
2022/08/13 03:35:38;;;;;;;6.35;2.17;;;;;;;17.23;89.56;96705.81;4985889;28;20141;-73
2022/08/13 03:38:06;;;;;;;3.47;1.63;;;;;;;17.26;89.02;96708.72;5002818;28;20053;-73
2022/08/13 03:43:20;;;;;;;4.07;2.20;;;;;;;17.23;91.11;96703.91;4986493;28;20421;-73
2022/08/13 03:45:49;;;;;;;5.28;2.10;;;;;;;17.14;90.99;96711.03;4985400;28;20555;-74
2022/08/13 03:48:15;;;;;;;6.53;1.80;;;;;;;17.11;91.89;96702.66;4986352;28;20037;-74
2022/08/13 03:50:42;;;;;;;5.43;1.85;;;;;;;17.10;89.99;96706.47;4986167;28;20261;-73
2022/08/13 03:53:08;;;;;;;5.88;1.85;;;;;;;17.09;91.99;96702.94;4987197;28;20046;-73
2022/08/13 03:55:33;;;;;;;6.43;2.10;;;;;;;17.12;89.79;96698.88;4983480;28;20390;-73
2022/08/13 03:58:00;;;;;;;7.53;2.13;;;;;;;17.13;89.76;96689.69;4983920;28;20046;-74
2022/08/13 04:00:28;;;;;;;4.22;2.00;;;;;;;17.13;91.44;96705.91;4983864;28;20133;-73
2022/08/13 04:03:00;;;;;;;10.27;2.00;;;;;;;17.14;89.89;96702.13;4989529;28;20405;-74
2022/08/13 04:05:26;;;;;;;3.28;1.77;;;;;;;17.16;90.44;96708.03;4988730;28;20042;-74
2022/08/13 04:07:52;;;;;;;2.90;1.75;;;;;;;17.17;89.78;96701.53;4988859;28;20060;-73
2022/08/13 04:10:19;;;;;;;3.90;1.75;;;;;;;17.16;90.69;96705.34;5004302;28;20042;-74
2022/08/13 04:12:45;;;;;;;5.18;2.20;;;;;;;17.13;90.14;96706.72;4991214;28;20084;-74
2022/08/13 04:15:11;;;;;;;3.40;1.85;;;;;;;17.13;90.66;96705.91;4990896;28;20069;-74
2022/08/13 04:17:37;;;;;;;5.10;2.00;;;;;;;17.15;91.03;96703.72;4991210;28;20113;-74
2022/08/13 04:20:09;;;;;;;7.38;2.28;;;;;;;17.18;90.89;96701.25;4991256;28;20037;-74
2022/08/13 04:22:37;;;;;;;3.22;1.73;;;;;;;17.16;91.47;96702.63;4990227;28;20041;-74
2022/08/13 04:25:06;;;;;;;4.20;2.00;;;;;;;17.17;90.40;96706.94;4989719;28;20106;-74
2022/08/13 04:27:34;;;;;;;5.75;2.08;;;;;;;17.20;90.50;96698.28;4992817;28;20034;-73
2022/08/13 04:30:00;;;;;;;6.45;2.05;;;;;;;17.20;91.71;96706.38;4988525;28;20060;-74
2022/08/13 04:32:27;;;;;;;3.70;1.80;;;;;;;17.21;89.65;96700.69;4988552;28;20045;-74
2022/08/13 04:34:54;;;;;;;3.50;1.80;;;;;;;17.20;91.32;96696.38;4990014;28;20178;-74
2022/08/13 04:37:20;;;;;;;9.30;1.98;;;;;;;17.22;90.27;96698.78;4988374;28;20307;-74
2022/08/13 04:39:45;;;;;;;5.40;2.10;;;;;;;17.23;89.98;96701.19;4988764;28;20030;-74
2022/08/13 04:42:11;;;;;;;4.80;2.13;;;;;;;17.27;90.34;96702.25;4989915;28;20042;-73
2022/08/13 04:44:37;;;;;;;5.05;2.00;;;;;;;17.29;90.49;96701.97;4989035;28;20077;-73
2022/08/13 04:47:04;;;;;;;5.57;1.90;;;;;;;17.27;91.73;96710.38;4988900;28;20113;-74
2022/08/13 04:49:31;;;;;;;5.82;1.90;;;;;;;17.25;91.39;96698.22;4988627;28;20132;-73
2022/08/13 04:51:56;;;;;;;8.63;2.50;;;;;;;17.22;91.68;96710.41;4988904;28;20392;-74
2022/08/13 04:54:22;;;;;;;6.90;2.10;;;;;;;17.26;91.14;96711.44;4990649;28;20528;-74
2022/08/13 04:56:47;;;;;;;5.55;2.05;;;;;;;17.25;91.08;96712.53;4989538;28;20042;-73
2022/08/13 04:59:13;;;;;;;4.55;1.90;;;;;;;17.29;91.27;96711.97;4988838;28;20129;-74
2022/08/13 05:01:38;;;;;;;6.47;2.20;;;;;;;17.31;92.10;96718.72;4989593;28;20382;-74
2022/08/13 05:04:05;;;;;;;4.95;2.00;;;;;;;17.29;91.39;96718.19;4986652;28;20047;-74
2022/08/13 05:06:30;;;;;;;6.90;2.15;;;;;;;17.31;90.72;96716.00;5006764;28;20046;-74
2022/08/13 05:08:56;;;;;;;7.53;1.90;;;;;;;17.33;90.68;96715.72;5004501;28;20742;-74
2022/08/13 05:11:22;;;;;;;4.07;1.83;;;;;;;17.39;92.03;96720.78;4990569;28;20490;-73
2022/08/13 05:13:47;;;;;;;3.53;2.03;;;;;;;17.39;91.21;96714.59;4989225;28;20030;-74
2022/08/13 05:16:16;;;;;;;5.90;1.92;;;;;;;17.49;91.00;96714.47;4990535;28;20112;-73
2022/08/13 05:18:45;;;;;;;7.30;2.10;;;;;;;17.49;93.06;96720.69;4986304;28;20081;-74
2022/08/13 05:21:12;;;;;;;3.88;1.90;;;;;;;17.59;91.21;96716.25;4988271;28;20068;-73
2022/08/13 05:23:39;;;;;;;11.10;2.40;;;;;;;17.68;91.46;96723.47;4986704;28;20654;-73
2022/08/13 05:26:06;;;;;;;5.40;1.70;;;;;;;17.76;91.47;96724.78;4988952;28;20100;-73
2022/08/13 05:28:32;;;;;;;5.72;2.00;;;;;;;17.87;90.04;96728.16;4990428;28;20045;-72
2022/08/13 05:30:59;;;;;;;7.97;2.10;;;;;;;17.91;91.27;96721.91;4987734;28;20294;-73
2022/08/13 05:33:27;;;;;;;4.82;2.13;;;;;;;17.92;91.47;96726.22;4989003;28;20426;-73
2022/08/13 05:35:56;;;;;;;7.18;2.00;;;;;;;17.96;92.54;96727.25;4974953;28;20287;-73
2022/08/13 05:38:23;;;;;;;3.50;1.80;;;;;;;18.03;89.78;96725.00;4987824;28;20109;-73
2022/08/13 05:41:00;;;;;;;4.07;2.10;;;;;;;18.11;91.98;96726.25;4988676;28;20104;-73
2022/08/13 05:43:28;;;;;;;5.00;1.95;;;;;;;18.22;89.45;96726.94;4990484;28;20042;-73
2022/08/13 05:45:59;;;;;;;6.07;2.00;;;;;;;18.29;91.11;96732.81;4986453;28;20058;-73
2022/08/13 05:48:56;;;;;;;5.63;1.92;;;;;;;18.40;90.58;96730.75;4986662;28;20351;-73
2022/08/13 05:51:31;;;;;;;5.75;2.10;;;;;;;18.44;90.59;96731.78;4988795;28;20054;-77
2022/08/13 05:53:59;;;;;;;4.90;2.00;;;;;;;18.52;90.24;96733.84;4988266;28;20564;-73
2022/08/13 05:56:26;;;;;;;5.60;2.08;;;;;;;18.61;89.90;96732.91;4987554;28;20076;-73
2022/08/13 05:58:52;;;;;;;3.88;2.20;;;;;;;18.62;90.61;96731.00;4986771;28;20730;-73
2022/08/13 06:04:08;;;;;;;6.90;1.88;;;;;;;18.78;89.35;96734.31;4986721;28;20252;-73
2022/08/13 06:06:34;;;;;;;7.65;2.13;;;;;;;18.84;90.20;96739.38;4987732;28;20291;-73
2022/08/13 06:08:59;;;;;;;6.85;2.17;;;;;;;18.93;89.26;96739.50;4985601;28;20034;-73
2022/08/13 06:11:27;;;;;;;4.35;1.80;;;;;;;18.99;89.61;96734.78;4990071;28;20054;-73
2022/08/13 06:13:53;;;;;;;4.88;1.92;;;;;;;19.07;88.88;96736.88;4987253;28;20398;-73
2022/08/13 06:16:20;;;;;;;4.88;2.00;;;;;;;19.17;89.41;96733.97;4988441;28;20042;-73
2022/08/13 06:18:46;;;;;;;8.07;2.17;;;;;;;19.27;88.88;96741.94;4987106;28;20132;-73
2022/08/13 06:21:13;;;;;;;8.55;1.92;;;;;;;19.39;87.47;96738.75;4988072;28;20595;-73
2022/08/13 06:23:41;;;;;;;4.72;2.05;;;;;;;19.47;86.97;96738.06;4988200;28;20045;-73
2022/08/13 06:26:08;;;;;;;4.72;2.08;;;;;;;19.57;87.43;96737.13;4986965;28;20507;-73
2022/08/13 06:28:35;;;;;;;4.32;2.13;;;;;;;19.63;87.69;96728.59;4988487;28;20046;-73
2022/08/13 06:31:06;;;;;;;4.35;2.22;;;;;;;19.73;86.76;96739.25;4988378;28;20144;-73
2022/08/13 06:33:35;;;;;;;9.45;1.90;;;;;;;19.82;85.03;96736.63;4988066;28;20509;-73
2022/08/13 06:36:05;;;;;;;3.90;1.92;;;;;;;19.88;84.70;96735.44;4987490;28;20057;-73
2022/08/13 06:38:32;;;;;;;;;;;;;;;19.98;85.18;96737.13;4990700;28;20505;-73
2022/08/13 06:40:59;;;;;;;3.28;1.80;;;;;;;20.08;83.35;96736.97;4985176;28;20031;-73
2022/08/13 06:43:30;;;;;;;5.15;2.10;;;;;;;20.17;83.52;96739.78;4988796;28;20812;-73
2022/08/13 06:45:57;;;;;;;;;;;;;;;20.23;86.46;96735.81;4989228;28;20049;-73
2022/08/13 06:48:23;;;;;;;5.78;2.00;;;;;;;20.33;84.83;96734.81;4989367;28;19924;-73
2022/08/13 06:50:50;;;;;;;5.43;2.28;;;;;;;20.43;83.74;96740.84;4990337;28;20125;-73
2022/08/13 06:53:17;;;;;;;6.25;1.90;;;;;;;20.51;84.15;96740.13;4987031;28;20046;-73
2022/08/13 06:55:45;;;;;;;6.22;1.70;;;;;;;20.61;83.72;96747.25;4986160;28;20041;-73
2022/08/13 06:58:11;;;;;;;3.10;1.80;;;;;;;20.69;84.92;96738.38;4987888;28;20035;-73
2022/08/13 07:00:38;;;;;;;5.40;1.90;;;;;;;20.80;83.59;96734.34;5002378;28;20614;-72
2022/08/13 07:03:10;;;;;;;5.80;1.85;;;;;;;20.92;82.80;96741.94;4986528;28;20050;-73
2022/08/13 07:05:44;;;;;;;7.35;2.22;;;;;;;21.00;79.92;96741.19;4990893;28;20077;-73
2022/08/13 07:08:11;;;;;;;4.57;2.00;;;;;;;21.10;78.69;96737.44;4985910;28;20219;-73
2022/08/13 07:10:51;;;;;;;3.55;1.95;;;;;;;21.22;79.49;96740.41;4989844;28;20045;-73
2022/08/13 07:13:17;;;;;;;4.25;1.92;;;;;;;21.32;77.40;96733.91;4986321;28;20386;-73
2022/08/13 07:15:50;;;;;;;4.95;1.90;;;;;;;21.40;75.96;96742.16;4989716;28;20136;-73
2022/08/13 07:18:16;;;;;;;7.55;1.92;;;;;;;21.46;76.66;96740.09;4986505;28;20050;-73
2022/08/13 07:20:42;;;;;;;5.65;2.00;;;;;;;21.56;75.94;96747.22;4987218;28;20038;-73
2022/08/13 07:23:11;;;;;;;4.18;1.80;;;;;;;21.65;74.28;96745.34;4988156;28;20435;-73
2022/08/13 07:25:39;;;;;;;6.38;1.95;;;;;;;21.69;72.29;96740.88;4988143;28;20046;-73
2022/08/13 07:28:05;;;;;;;3.95;1.60;;;;;;;21.78;73.16;96744.44;4984532;28;20120;-73
2022/08/13 07:30:31;;;;;;;4.97;1.75;;;;;;;21.88;72.79;96735.19;4988693;28;20042;-73
2022/08/13 07:32:57;;;;;;;3.20;1.73;;;;;;;21.91;70.92;96731.84;4986364;28;20050;-73
2022/08/13 07:35:23;;;;;;;3.67;1.65;;;;;;;21.93;70.11;96743.22;4988411;28;20397;-73
2022/08/13 07:37:52;;;;;;;10.55;1.80;;;;;;;22.05;70.99;96737.19;4969720;28;20061;-73
2022/08/13 07:40:19;;;;;;;3.35;1.55;;;;;;;22.15;71.50;96739.66;4986686;28;20129;-73
2022/08/13 07:42:49;;;;;;;5.25;1.60;;;;;;;22.28;69.46;96743.38;4985662;28;20108;-73
2022/08/13 07:45:27;;;;;;;6.70;2.10;;;;;;;22.36;67.55;96737.16;4985623;28;20073;-73
2022/08/13 07:47:54;;;;;;;7.82;2.10;;;;;;;22.36;69.30;96746.13;4985696;28;20045;-73
2022/08/13 07:50:20;;;;;;;4.63;2.20;;;;;;;22.48;67.87;96740.84;4985775;28;20199;-73
2022/08/13 07:52:52;;;;;;;5.50;1.83;;;;;;;22.50;66.50;96740.53;4987467;28;20260;-73
2022/08/13 07:55:19;;;;;;;3.88;2.03;;;;;;;22.61;68.00;96739.09;4986952;28;20250;-73
2022/08/13 07:57:46;;;;;;;6.63;1.80;;;;;;;22.66;65.94;96738.16;4989579;28;20128;-73
2022/08/13 08:00:21;;;;;;;5.95;1.98;;;;;;;22.71;64.90;96741.50;4987577;28;20042;-73
2022/08/13 08:02:54;;;;;;;3.25;1.90;;;;;;;22.76;60.38;96740.56;4986881;28;20046;-73
2022/08/13 08:05:24;;;;;;;5.10;2.00;;;;;;;22.76;62.15;96735.13;4986335;28;20037;-73
2022/08/13 08:07:51;;;;;;;5.63;1.60;;;;;;;22.83;62.08;96738.16;4986477;28;20044;-73
2022/08/13 08:10:20;;;;;;;4.35;1.80;;;;;;;22.97;62.86;96727.13;4985151;28;20528;-73
2022/08/13 08:12:46;;;;;;;6.18;1.88;;;;;;;23.05;59.70;96742.69;4987395;28;20049;-73
2022/08/13 08:15:12;;;;;;;4.07;1.80;;;;;;;23.12;58.46;96731.31;4984912;28;20038;-73
2022/08/13 08:17:40;;;;;;;3.92;1.73;;;;;;;23.19;58.93;96728.84;4986077;28;20043;-73
2022/08/13 08:20:09;;;;;;;3.00;1.83;;;;;;;23.17;58.56;96729.19;4985058;28;20041;-73
2022/08/13 08:22:35;;;;;;;6.80;2.00;;;;;;;23.30;56.96;96735.59;4986633;28;20564;-73
2022/08/13 08:25:03;;;;;;;3.65;2.00;;;;;;;23.39;57.40;96730.13;4987234;28;20065;-73
2022/08/13 08:27:32;;;;;;;4.10;1.70;;;;;;;23.39;55.98;96733.66;4987559;28;20054;-73
2022/08/13 08:30:00;;;;;;;5.85;2.25;;;;;;;23.61;55.16;96732.69;5002738;28;20046;-73
2022/08/13 08:32:26;;;;;;;3.85;1.77;;;;;;;23.63;55.96;96739.41;4987007;28;20049;-73
2022/08/13 08:34:53;;;;;;;3.58;2.05;;;;;;;23.75;54.47;96732.47;4985795;28;20465;-73
2022/08/13 08:42:56;;;;;;;4.90;1.70;;;;;;;23.96;54.13;96736.06;4999891;28;20565;-73
2022/08/13 08:45:24;;;;;;;3.75;1.75;;;;;;;23.97;51.50;96739.59;4986135;28;20479;-73
2022/08/13 08:47:52;;;;;;;7.32;1.77;;;;;;;23.98;54.01;96738.50;4986814;28;20481;-73
2022/08/13 08:50:24;;;;;;;4.43;2.20;;;;;;;24.14;52.02;96732.16;5005568;28;20659;-73
2022/08/13 08:55:36;;;;;;;4.22;2.00;;;;;;;24.24;50.74;96732.91;4988665;28;20285;-73
2022/08/13 08:58:04;;;;;;;10.98;2.10;;;;;;;24.26;50.29;96736.91;4990649;28;20473;-73
2022/08/13 09:00:33;;;;;;;4.85;1.92;;;;;;;24.30;49.78;96732.41;4988746;28;20038;-73
2022/08/13 09:02:59;;;;;;;8.55;2.00;;;;;;;24.38;49.07;96726.09;4990454;28;20045;-73
2022/08/13 09:05:26;;;;;;;6.07;2.17;;;;;;;24.49;49.64;96729.25;4989059;28;20593;-73
2022/08/13 09:07:53;;;;;;;7.53;2.20;;;;;;;24.40;52.80;96725.75;4993046;28;20046;-72
2022/08/13 09:10:20;;;;;;;5.72;2.15;;;;;;;24.28;52.20;96709.22;4989642;28;20440;-72
2022/08/13 09:12:47;;;;;;;9.93;2.90;;;;;;;24.35;59.65;96715.00;4958727;28;20046;-73
2022/08/13 09:15:17;;;;;;;3.03;1.73;;;;;;;24.45;61.86;96722.84;4986847;28;21028;-72
2022/08/13 09:17:45;;;;;;;3.72;1.73;;;;;;;24.37;64.88;96721.78;4987460;28;20077;-72
2022/08/13 09:20:17;;;;;;;7.25;2.22;;;;;;;24.40;63.41;96712.91;4985729;28;20091;-72
2022/08/13 09:22:48;;;;;;;4.03;1.92;;;;;;;24.49;53.40;96721.03;4987041;28;20045;-73
2022/08/13 09:25:16;;;;;;;6.10;2.17;;;;;;;24.59;56.12;96715.19;4988213;28;20286;-72
2022/08/13 09:27:46;;;;;;;5.50;2.40;;;;;;;24.81;53.42;96715.97;4981190;28;20037;-72
2022/08/13 09:30:13;;;;;;;5.40;2.00;;;;;;;24.95;52.61;96713.78;4986548;28;20049;-72
2022/08/13 09:32:39;;;;;;;4.40;1.80;;;;;;;24.83;54.33;96720.00;4988477;28;20060;-72
2022/08/13 09:35:06;;;;;;;4.30;1.92;;;;;;;25.01;48.35;96720.66;4995316;28;20258;-72
2022/08/13 09:37:33;;;;;;;7.45;2.10;;;;;;;24.94;46.99;96720.41;4989369;28;20038;-72
2022/08/13 09:40:10;;;;;;;4.45;2.20;;;;;;;24.88;60.14;96719.00;4986585;28;20552;-72
2022/08/13 09:42:57;;;;;;;7.22;2.17;;;;;;;24.76;46.07;96714.28;4989410;28;20420;-72
2022/08/13 09:45:27;;;;;;;7.07;2.30;;;;;;;24.92;58.39;96709.00;4988283;28;20563;-72
2022/08/13 09:47:56;;;;;;;3.72;2.30;;;;;;;25.05;46.36;96709.84;4987506;28;20048;-72
2022/08/13 09:50:24;;;;;;;5.85;2.20;;;;;;;25.11;47.28;96700.31;4987787;28;20073;-72
2022/08/13 09:52:52;;;;;;;8.02;2.33;;;;;;;25.31;44.27;96698.69;4991058;28;20353;-72
2022/08/13 09:55:22;;;;;;;9.77;2.38;;;;;;;25.49;58.56;96697.34;4990464;28;20046;-73
2022/08/13 09:57:53;;;;;;;3.55;2.10;;;;;;;25.52;46.75;96700.19;4987819;28;20038;-73
2022/08/13 10:00:22;;;;;;;4.95;2.05;;;;;;;25.53;42.74;96695.53;4986742;28;21717;-73
2022/08/13 10:02:50;;;;;;;5.45;2.20;;;;;;;25.50;43.48;96694.25;4988160;28;20243;-72
2022/08/13 10:05:19;;;;;;;8.45;2.20;;;;;;;25.57;56.01;96699.19;4988592;28;20103;-72
2022/08/13 10:07:45;;;;;;;4.65;2.40;;;;;;;25.65;49.08;96692.81;4988304;28;20112;-72
2022/08/13 10:10:12;;;;;;;5.00;1.90;;;;;;;25.89;45.81;96685.78;4990758;28;20425;-73
2022/08/13 10:12:37;;;;;;;5.43;2.10;;;;;;;26.02;46.61;96690.16;5004223;28;20065;-72
2022/08/13 10:15:04;;;;;;;3.58;2.10;;;;;;;25.81;57.90;96684.75;4985542;28;20534;-72
2022/08/13 10:17:51;;;;;;;3.88;1.90;;;;;;;26.15;47.49;96683.53;4989626;28;20042;-72
2022/08/13 10:20:22;;;;;;;7.40;1.92;;;;;;;26.53;45.84;96688.63;4987519;28;20572;-72
2022/08/13 10:22:49;;;;;;;4.47;2.20;;;;;;;26.54;43.65;96682.00;4990969;28;20122;-73
2022/08/13 10:25:16;;;;;;;3.30;2.03;;;;;;;26.59;41.89;96684.50;4987466;28;20592;-73
2022/08/13 10:27:41;;;;;;;3.45;2.20;;;;;;;26.52;39.39;96672.50;4989043;28;20046;-72
2022/08/13 10:30:07;;;;;;;6.03;2.35;;;;;;;26.78;42.00;96663.88;4989115;28;20037;-73
2022/08/13 10:32:33;;;;;;;2.95;1.75;;;;;;;26.79;50.36;96668.22;4989148;28;20354;-72
2022/08/13 10:35:01;;;;;;;11.73;2.35;;;;;;;26.84;44.57;96673.44;4985349;28;20167;-72
2022/08/13 10:37:30;;;;;;;6.38;1.92;;;;;;;26.94;42.30;96672.97;4988658;28;20093;-73
2022/08/13 10:39:59;;;;;;;5.03;2.20;;;;;;;27.23;38.59;96662.78;4296785;28;10000947;-73
2022/08/13 10:42:27;;;;;;;5.60;2.28;;;;;;;27.71;37.95;96654.31;4983839;28;20493;-73
2022/08/13 10:44:52;;;;;;;5.90;2.45;;;;;;;27.54;36.45;96656.53;4990546;28;20045;-73
2022/08/13 10:47:24;;;;;;;5.18;2.00;;;;;;;27.84;39.85;96660.50;4988690;28;20038;-72
2022/08/13 10:49:51;;;;;;;5.25;2.00;;;;;;;28.09;39.34;96646.53;4986402;28;20092;-73
2022/08/13 10:52:20;;;;;;;5.63;2.20;;;;;;;28.18;44.10;96642.47;4987251;28;20128;-72
2022/08/13 10:54:47;;;;;;;4.40;2.05;;;;;;;28.69;38.88;96641.59;4986999;28;20678;-72
2022/08/13 10:57:14;;;;;;;5.82;2.00;;;;;;;28.41;34.06;96644.56;4987357;28;20042;-73
2022/08/13 10:59:43;;;;;;;3.92;2.17;;;;;;;29.04;35.33;96647.88;4986437;28;20042;-72
2022/08/13 11:02:10;;;;;;;3.85;2.13;;;;;;;29.25;38.13;96641.97;4991123;28;20042;-73
2022/08/13 11:04:37;;;;;;;3.42;2.05;;;;;;;30.03;32.00;96639.78;4988356;28;20172;-73
2022/08/13 11:07:04;;;;;;;3.33;2.00;;;;;;;31.18;34.12;96625.56;4987821;28;20487;-73
2022/08/13 11:09:29;;;;;;;3.92;2.05;;;;;;;32.60;31.85;96623.19;4972859;28;20042;-73
2022/08/13 11:11:57;;;;;;;4.47;2.10;;;;;;;34.30;28.32;96635.84;4986755;28;20069;-73
2022/08/13 11:14:24;;;;;;;3.40;2.10;;;;;;;34.95;24.87;96620.66;4990119;28;20042;-73
2022/08/13 11:19:16;;;;;;;6.32;1.90;;;;;;;34.83;24.50;96618.28;4986574;28;20120;-73
2022/08/13 11:21:46;;;;;;;3.30;1.92;;;;;;;36.06;22.40;96626.31;4989357;28;20259;-73
2022/08/13 11:24:12;;;;;;;5.63;2.10;;;;;;;37.24;21.88;96617.44;4987773;28;20251;-73
2022/08/13 11:26:38;;;;;;;6.32;2.35;;;;;;;35.61;24.29;96614.31;4988086;28;20026;-73
2022/08/13 11:29:05;;;;;;;5.93;2.00;;;;;;;38.03;20.94;96613.47;4988157;28;20481;-73
2022/08/13 11:31:31;;;;;;;5.75;2.42;;;;;;;38.64;21.12;96608.38;4987454;28;20600;-73
2022/08/13 11:33:57;;;;;;;7.53;1.92;;;;;;;39.89;19.91;96611.28;4985961;28;20392;-73
2022/08/13 11:36:22;;;;;;;3.92;1.92;;;;;;;39.78;19.34;96617.16;4987631;28;20133;-73
2022/08/13 11:38:48;;;;;;;6.22;2.13;;;;;;;39.90;17.66;96601.63;4986564;28;20033;-73
2022/08/13 11:41:14;;;;;;;7.95;2.08;;;;;;;41.22;18.50;96600.09;4989439;28;20370;-73
2022/08/13 11:43:39;;;;;;;4.43;2.15;;;;;;;40.54;19.87;96607.63;4986629;28;20069;-73
2022/08/13 11:46:04;;;;;;;6.82;2.20;;;;;;;40.97;17.88;96603.66;4986400;28;20329;-73
2022/08/13 11:48:30;;;;;;;4.38;2.20;;;;;;;41.52;18.77;96596.75;4984267;28;20048;-73
2022/08/13 11:50:57;;;;;;;3.67;2.00;;;;;;;41.51;18.47;96595.19;4985016;28;20045;-73
2022/08/13 11:53:23;;;;;;;4.22;1.92;;;;;;;42.59;17.78;96604.47;4987277;28;20126;-73
2022/08/13 11:55:49;;;;;;;3.22;1.83;;;;;;;41.79;19.04;96610.34;4983229;28;20033;-73
2022/08/13 11:58:15;;;;;;;4.43;1.98;;;;;;;40.99;18.40;96603.97;4987251;28;20096;-73
2022/08/13 12:00:44;;;;;;;7.75;1.95;;;;;;;40.58;18.88;96603.50;4985927;28;20093;-73
2022/08/13 12:03:10;;;;;;;3.38;1.98;;;;;;;40.88;16.53;96591.06;4990189;28;20184;-73
2022/08/13 12:05:36;;;;;;;4.68;2.20;;;;;;;42.39;16.77;96596.28;4988041;28;20057;-73